Time;durP1;ratioP1;P1;durP2;ratioP2;P2;SDS_P1;SDS_P2;PMS_P1;PMS_P2;Temp;Humidity;BMP_temperature;BMP_pressure;BME280_temperature;BME280_humidity;BME280_pressure;Samples;Min_cycle;Max_cycle;Signal;HPM_P1;HPM_P2
2023/06/14 00:01:02;;;;;;;12.13;3.97;;;;;;;18.92;50.66;101459.47;5025948;28;20116;-70
2023/06/14 00:03:29;;;;;;;7.38;3.30;;;;;;;18.84;50.80;101459.78;5028951;28;20042;-70
2023/06/14 00:05:54;;;;;;;8.38;3.88;;;;;;;18.81;51.17;101464.97;5023597;28;20262;-70
2023/06/14 00:08:22;;;;;;;5.23;3.53;;;;;;;18.78;51.08;101466.28;5023899;28;20041;-70
2023/06/14 00:10:48;;;;;;;10.65;3.13;;;;;;;18.79;51.42;101465.19;5026498;28;20060;-70
2023/06/14 00:13:14;;;;;;;8.00;3.42;;;;;;;18.78;51.17;101463.50;5038638;28;20014;-72
2023/06/14 00:15:42;;;;;;;7.07;3.37;;;;;;;18.72;51.46;101461.69;5037855;28;20657;-70
2023/06/14 00:18:07;;;;;;;8.90;3.55;;;;;;;18.70;51.51;101463.84;5027484;28;20026;-70
2023/06/14 00:20:33;;;;;;;4.40;3.27;;;;;;;18.77;51.49;101467.38;5027168;28;20513;-70
2023/06/14 00:23:00;;;;;;;10.80;3.43;;;;;;;18.71;51.39;101460.00;5027584;28;20022;-71
2023/06/14 00:25:26;;;;;;;14.18;3.85;;;;;;;18.69;51.99;101472.41;5023854;28;20279;-72
2023/06/14 00:27:51;;;;;;;8.63;4.27;;;;;;;18.66;52.03;101470.09;5029906;28;20049;-70
2023/06/14 00:30:17;;;;;;;7.75;3.53;;;;;;;18.67;52.26;101467.09;5021022;28;20037;-70
2023/06/14 00:32:46;;;;;;;8.53;3.30;;;;;;;18.64;52.33;101466.72;5027136;28;20033;-71
2023/06/14 00:35:11;;;;;;;7.97;3.97;;;;;;;18.59;52.74;101470.19;5019723;28;20110;-70
2023/06/14 00:37:37;;;;;;;9.13;4.03;;;;;;;18.58;52.43;101468.47;5061245;28;20059;-71
2023/06/14 00:40:05;;;;;;;10.85;4.22;;;;;;;18.57;52.62;101466.78;5021838;28;20037;-71
2023/06/14 00:42:32;;;;;;;10.82;3.55;;;;;;;18.55;52.62;101468.97;5026113;28;20037;-70
2023/06/14 00:44:57;;;;;;;7.88;3.70;;;;;;;18.54;52.94;101461.72;5030439;28;20035;-70
2023/06/14 00:47:23;;;;;;;6.50;3.43;;;;;;;18.48;53.41;101465.44;5025284;28;20392;-70
2023/06/14 00:49:50;;;;;;;10.18;3.80;;;;;;;18.44;53.92;101466.97;5024762;28;20029;-70
2023/06/14 00:52:17;;;;;;;10.45;3.90;;;;;;;18.34;54.27;101466.69;5034122;28;20500;-70
2023/06/14 00:54:43;;;;;;;7.45;3.92;;;;;;;18.33;54.23;101462.22;5024747;28;20473;-70
2023/06/14 00:57:10;;;;;;;4.78;3.95;;;;;;;18.30;54.14;101468.19;5026312;28;20041;-71
2023/06/14 00:59:41;;;;;;;10.10;3.47;;;;;;;18.26;53.89;101472.50;5023701;28;20104;-71
2023/06/14 01:02:07;;;;;;;10.38;3.90;;;;;;;18.26;54.66;101466.13;5025039;28;20036;-71
2023/06/14 01:04:33;;;;;;;8.03;3.70;;;;;;;18.19;55.04;101470.91;5021436;28;20029;-71
2023/06/14 01:07:15;;;;;;;7.30;3.80;;;;;;;18.15;55.22;101475.22;5025723;28;20401;-71
2023/06/14 01:09:55;;;;;;;14.73;3.17;;;;;;;18.08;54.87;101463.38;5023426;28;20104;-71
2023/06/14 01:12:30;;;;;;;10.77;4.28;;;;;;;18.08;55.15;101466.97;5025504;28;20394;-71
2023/06/14 01:14:59;;;;;;;9.48;4.13;;;;;;;18.07;55.42;101470.81;5023797;28;20033;-71
2023/06/14 01:17:26;;;;;;;9.82;4.43;;;;;;;18.05;55.16;101470.22;5024255;28;20030;-70
2023/06/14 01:19:57;;;;;;;11.93;3.72;;;;;;;18.01;55.46;101468.13;5024998;28;20384;-71
2023/06/14 01:22:25;;;;;;;9.55;3.85;;;;;;;17.95;56.04;101469.03;5023778;28;20037;-71
2023/06/14 01:24:55;;;;;;;7.80;3.78;;;;;;;17.92;55.85;101470.34;5024257;28;20040;-71
2023/06/14 01:27:23;;;;;;;5.10;3.40;;;;;;;17.89;55.82;101464.44;5023034;28;20032;-70
2023/06/14 01:29:51;;;;;;;8.15;3.60;;;;;;;17.83;55.56;101457.84;5025225;28;20033;-70
2023/06/14 01:32:18;;;;;;;9.35;4.20;;;;;;;17.79;56.25;101464.97;5025613;28;20041;-70
2023/06/14 01:34:44;;;;;;;7.57;3.40;;;;;;;17.79;55.64;101462.19;5026723;28;20677;-70
2023/06/14 01:37:12;;;;;;;7.17;3.70;;;;;;;17.74;56.22;101456.50;5018243;28;20049;-70
2023/06/14 01:39:37;;;;;;;7.47;4.10;;;;;;;17.73;55.92;101463.13;5023561;28;20101;-70
2023/06/14 01:42:04;;;;;;;12.63;3.80;;;;;;;17.70;56.13;101460.78;5024248;28;20032;-72
2023/06/14 01:44:30;;;;;;;;;;;;;;;17.67;56.42;101460.41;5022856;28;20017;-72
2023/06/14 01:46:57;;;;;;;8.55;3.70;;;;;;;17.65;55.99;101459.75;5026690;28;19939;-72
2023/06/14 01:49:23;;;;;;;9.60;4.80;;;;;;;17.67;55.72;101454.84;5023779;28;20036;-72
2023/06/14 01:51:48;;;;;;;13.00;4.13;;;;;;;17.61;56.44;101453.00;5024187;28;20038;-72
2023/06/14 01:54:15;;;;;;;9.77;4.57;;;;;;;17.59;56.63;101457.91;5024429;28;20493;-72
2023/06/14 01:56:40;;;;;;;;;;;;;;;17.56;56.40;101458.38;5025166;28;20485;-72
2023/06/14 01:59:05;;;;;;;9.55;3.90;;;;;;;17.49;56.76;101454.81;5021227;28;19923;-72
2023/06/14 02:01:34;;;;;;;7.13;3.73;;;;;;;17.48;57.05;101453.97;5023828;28;20033;-72
2023/06/14 02:04:00;;;;;;;7.25;3.97;;;;;;;17.44;56.82;101460.22;5017134;28;20129;-72
2023/06/14 02:06:27;;;;;;;6.47;3.72;;;;;;;17.48;56.44;101458.66;5021655;28;20072;-72
2023/06/14 02:08:53;;;;;;;5.78;3.55;;;;;;;17.40;57.21;101464.50;5022264;28;20045;-72
2023/06/14 02:11:18;;;;;;;13.97;4.17;;;;;;;17.34;57.32;101462.59;5021351;28;20022;-72
2023/06/14 02:13:44;;;;;;;13.27;4.30;;;;;;;17.31;56.89;101466.69;5024412;28;20040;-72
2023/06/14 02:16:10;;;;;;;19.17;4.37;;;;;;;17.32;56.83;101462.81;5021869;28;20100;-72
2023/06/14 02:18:36;;;;;;;8.98;4.18;;;;;;;17.27;56.94;101453.47;5022215;28;20037;-71
2023/06/14 02:21:01;;;;;;;19.40;4.00;;;;;;;17.32;56.53;101456.41;5026733;28;20037;-71
2023/06/14 02:23:27;;;;;;;8.03;3.73;;;;;;;17.27;56.58;101459.03;5023325;28;20030;-72
2023/06/14 02:25:53;;;;;;;7.53;3.80;;;;;;;17.25;56.85;101461.19;5027266;28;20436;-71
2023/06/14 02:28:20;;;;;;;11.77;3.90;;;;;;;17.20;56.24;101461.88;5025742;28;20033;-72
2023/06/14 02:30:46;;;;;;;6.78;3.50;;;;;;;17.17;56.84;101459.53;5004597;28;20033;-71
2023/06/14 02:33:12;;;;;;;6.30;3.42;;;;;;;17.13;56.82;101455.50;5025944;28;20029;-70
2023/06/14 02:35:38;;;;;;;6.20;3.67;;;;;;;17.16;56.74;101463.38;5027004;28;20124;-71
2023/06/14 02:38:05;;;;;;;11.17;4.30;;;;;;;17.18;56.49;101463.16;5016365;28;20123;-71
2023/06/14 02:40:30;;;;;;;;;;;;;;;17.13;56.62;101460.22;5025126;28;20045;-71
2023/06/14 02:42:56;;;;;;;10.95;3.67;;;;;;;17.10;56.94;101460.66;5025494;28;20265;-72
2023/06/14 02:45:22;;;;;;;9.80;4.00;;;;;;;17.08;57.03;101465.59;5020513;28;20477;-75
2023/06/14 02:47:48;;;;;;;13.45;4.03;;;;;;;17.07;56.84;101467.50;5055899;28;20033;-75
2023/06/14 02:50:13;;;;;;;8.43;3.90;;;;;;;17.00;57.61;101465.84;5010316;28;20048;-75
2023/06/14 02:52:41;;;;;;;7.23;3.90;;;;;;;16.99;57.56;101475.22;5027415;28;20021;-75
2023/06/14 02:55:08;;;;;;;10.75;4.05;;;;;;;16.97;57.72;101458.84;5009954;28;20056;-75
2023/06/14 02:57:33;;;;;;;9.68;3.95;;;;;;;16.95;58.04;101474.81;5020252;28;20059;-75
2023/06/14 02:59:59;;;;;;;7.50;3.47;;;;;;;16.89;58.11;101472.09;5021377;28;20029;-75
2023/06/14 03:02:24;;;;;;;10.80;4.67;;;;;;;16.84;58.12;101469.16;5023005;28;20056;-74
2023/06/14 03:04:50;;;;;;;5.27;3.80;;;;;;;16.77;59.30;101473.88;5026060;28;20084;-75
2023/06/14 03:07:19;;;;;;;11.07;3.97;;;;;;;16.73;59.93;101472.63;5025105;28;20048;-75
2023/06/14 03:09:45;;;;;;;7.85;3.88;;;;;;;16.67;59.73;101484.59;5010654;28;20313;-76
2023/06/14 03:12:11;;;;;;;5.33;4.00;;;;;;;16.63;60.64;101478.66;5022948;28;20075;-75
2023/06/14 03:14:36;;;;;;;7.37;3.97;;;;;;;16.63;60.19;101483.31;5024831;28;20572;-75
2023/06/14 03:17:04;;;;;;;10.40;4.40;;;;;;;16.60;60.21;101475.47;5025552;28;20044;-76
2023/06/14 03:19:30;;;;;;;13.32;4.38;;;;;;;16.48;61.03;101480.84;5022114;28;20049;-74
2023/06/14 03:21:57;;;;;;;11.47;3.93;;;;;;;16.44;61.37;101485.13;5021444;28;20523;-75
2023/06/14 03:24:24;;;;;;;12.57;4.60;;;;;;;16.39;61.55;101487.69;5025099;28;20428;-74
2023/06/14 03:26:49;;;;;;;13.52;4.03;;;;;;;16.33;62.12;101491.28;5017979;28;20033;-75
2023/06/14 03:29:16;;;;;;;8.67;4.33;;;;;;;16.36;61.63;101498.31;5025888;28;20107;-75
2023/06/14 03:32:00;;;;;;;9.60;4.53;;;;;;;16.35;61.94;101499.38;5023150;28;20038;-75
2023/06/14 03:34:25;;;;;;;10.80;3.80;;;;;;;16.44;61.41;101500.88;5023731;28;20045;-74
2023/06/14 03:36:50;;;;;;;12.67;5.10;;;;;;;16.42;61.56;101503.00;5020787;28;20059;-74
2023/06/14 03:39:16;;;;;;;10.20;4.33;;;;;;;16.39;62.03;101507.03;5029944;28;20404;-74
2023/06/14 03:41:42;;;;;;;15.05;4.15;;;;;;;16.37;61.98;101511.06;5025995;28;20061;-74
2023/06/14 03:44:07;;;;;;;8.23;4.53;;;;;;;16.41;62.02;101509.59;5023597;28;20068;-74
2023/06/14 03:46:34;;;;;;;13.17;4.50;;;;;;;16.35;61.66;101510.44;5025468;28;20070;-74
2023/06/14 03:49:00;;;;;;;7.65;3.72;;;;;;;16.36;62.01;101512.13;5022557;28;20036;-74
2023/06/14 03:51:26;;;;;;;9.00;4.03;;;;;;;16.41;62.32;101515.13;5021965;28;20049;-74
2023/06/14 03:53:53;;;;;;;9.23;3.77;;;;;;;16.39;62.28;101515.34;5021901;28;20076;-73
2023/06/14 03:56:21;;;;;;;11.20;4.18;;;;;;;16.38;62.51;101512.78;5024081;28;20032;-75
2023/06/14 03:58:46;;;;;;;12.18;4.38;;;;;;;16.45;61.82;101519.16;5022785;28;20021;-74
2023/06/14 04:01:12;;;;;;;19.03;4.00;;;;;;;16.46;62.33;101520.84;5023155;28;20036;-74
2023/06/14 04:03:37;;;;;;;15.50;3.93;;;;;;;16.46;62.21;101520.84;5020882;28;20018;-74
2023/06/14 04:06:05;;;;;;;7.77;3.83;;;;;;;16.45;62.05;101527.47;5057133;28;20412;-74
2023/06/14 04:08:31;;;;;;;12.63;3.67;;;;;;;16.46;62.25;101518.94;5021189;28;20480;-75
2023/06/14 04:10:56;;;;;;;10.53;4.57;;;;;;;16.45;62.17;101527.47;5027340;28;20041;-75
2023/06/14 04:13:21;;;;;;;15.47;4.27;;;;;;;16.42;62.57;101531.50;5027814;28;20036;-74
2023/06/14 04:15:47;;;;;;;10.83;3.90;;;;;;;16.42;62.81;101534.28;5027276;28;20040;-74
2023/06/14 04:18:12;;;;;;;7.73;4.47;;;;;;;16.46;62.51;101535.53;5028910;28;20029;-74
2023/06/14 04:20:39;;;;;;;10.13;4.27;;;;;;;16.45;62.32;101525.56;5030902;28;20500;-74
2023/06/14 04:23:15;;;;;;;9.02;4.20;;;;;;;16.49;62.80;101525.97;5026444;28;20029;-73
2023/06/14 04:25:44;;;;;;;11.60;4.60;;;;;;;16.50;62.31;101538.72;5023477;28;20366;-74
2023/06/14 04:28:12;;;;;;;12.13;4.35;;;;;;;16.46;62.68;101531.91;5027774;28;20036;-75
2023/06/14 04:30:38;;;;;;;8.73;4.40;;;;;;;16.52;62.63;101539.34;5024450;28;20504;-74
2023/06/14 04:33:05;;;;;;;10.85;4.45;;;;;;;16.55;62.59;101536.97;5023055;28;20075;-74
2023/06/14 04:35:32;;;;;;;12.45;4.13;;;;;;;16.59;62.12;101537.41;5034535;28;20040;-74
2023/06/14 04:37:58;;;;;;;8.90;4.25;;;;;;;16.61;62.15;101538.03;5025077;28;20041;-74
2023/06/14 04:40:23;;;;;;;10.05;3.95;;;;;;;16.64;62.36;101538.44;5026687;28;20027;-73
2023/06/14 04:42:50;;;;;;;8.97;4.00;;;;;;;16.72;61.73;101531.81;5027522;28;20034;-73
2023/06/14 04:45:16;;;;;;;;;;;;;;;16.73;62.28;101534.34;5023916;28;20107;-74
2023/06/14 04:47:43;;;;;;;13.57;3.92;;;;;;;16.78;61.66;101526.25;5042364;28;19913;-75
2023/06/14 04:50:10;;;;;;;14.35;4.00;;;;;;;16.83;60.95;101537.50;5025227;28;20540;-77
2023/06/14 04:52:35;;;;;;;9.88;3.65;;;;;;;16.91;61.11;101539.16;5024687;28;20041;-77
2023/06/14 04:55:01;;;;;;;13.87;4.50;;;;;;;16.98;60.65;101545.50;5022483;28;20440;-75
2023/06/14 04:57:27;;;;;;;6.75;3.67;;;;;;;16.97;60.34;101538.28;5025783;28;20032;-76
2023/06/14 04:59:57;;;;;;;11.00;4.17;;;;;;;17.00;59.88;101544.22;5025816;28;20037;-76
2023/06/14 05:02:23;;;;;;;9.00;3.47;;;;;;;17.14;59.84;101544.97;5059541;28;20048;-76
2023/06/14 05:04:49;;;;;;;14.10;3.95;;;;;;;17.29;59.37;101548.28;5027621;28;20417;-76
2023/06/14 05:07:16;;;;;;;12.88;3.80;;;;;;;17.35;59.08;101550.16;5022995;28;20587;-76
2023/06/14 05:09:42;;;;;;;9.32;3.72;;;;;;;17.55;59.27;101559.19;5024007;28;20029;-76
2023/06/14 05:12:07;;;;;;;7.30;4.10;;;;;;;17.94;57.81;101545.81;5029735;28;20036;-76
2023/06/14 05:14:34;;;;;;;10.13;3.37;;;;;;;18.59;55.08;101549.81;5024908;28;20107;-76
2023/06/14 05:17:00;;;;;;;;;;;;;;;19.63;52.86;101557.50;5025709;28;20034;-76
2023/06/14 05:19:26;;;;;;;13.50;3.75;;;;;;;20.50;50.06;101565.75;5026391;28;20559;-76
2023/06/14 05:21:52;;;;;;;10.70;3.75;;;;;;;21.02;47.66;101561.06;5025662;28;20048;-76
2023/06/14 05:24:18;;;;;;;9.15;3.83;;;;;;;21.83;45.57;101565.09;5021571;28;20050;-76
2023/06/14 05:26:43;;;;;;;13.30;3.70;;;;;;;22.47;44.84;101569.22;5029590;28;20076;-77
2023/06/14 05:29:09;;;;;;;7.78;3.63;;;;;;;22.78;43.38;101568.53;5011698;28;20026;-77
2023/06/14 05:31:34;;;;;;;8.63;3.80;;;;;;;23.39;42.23;101576.53;5024404;28;20614;-77
2023/06/14 05:34:00;;;;;;;11.63;3.40;;;;;;;24.24;40.69;101568.94;5021142;28;20407;-76
2023/06/14 05:36:27;;;;;;;9.07;3.37;;;;;;;24.03;41.39;101573.56;5025297;28;20052;-77
2023/06/14 05:38:57;;;;;;;7.68;3.40;;;;;;;24.34;40.16;101569.00;5022662;28;20025;-77
2023/06/14 05:41:27;;;;;;;9.10;3.65;;;;;;;24.69;40.23;101567.28;5024557;28;20399;-76
2023/06/14 05:43:54;;;;;;;7.03;3.20;;;;;;;24.91;38.82;101575.53;5025184;28;20022;-76
2023/06/14 05:46:22;;;;;;;9.32;3.63;;;;;;;24.96;39.13;101578.34;5025366;28;20397;-76
2023/06/14 05:48:48;;;;;;;6.18;3.20;;;;;;;24.84;39.93;101577.72;5028531;28;20058;-76
2023/06/14 05:51:14;;;;;;;6.68;3.40;;;;;;;25.36;38.42;101578.50;5032804;28;20380;-76
2023/06/14 05:53:40;;;;;;;13.10;4.20;;;;;;;25.49;38.84;101580.75;5024835;28;20082;-76
2023/06/14 05:56:05;;;;;;;7.50;3.10;;;;;;;25.48;38.21;101581.88;5028281;28;20037;-76
2023/06/14 05:58:31;;;;;;;12.10;3.38;;;;;;;25.47;38.06;101583.00;5015848;28;20041;-76
2023/06/14 06:00:57;;;;;;;13.48;3.50;;;;;;;25.93;36.13;101582.00;5020170;28;20033;-76
2023/06/14 06:03:22;;;;;;;;;;;;;;;25.92;37.14;101592.38;5040821;28;20030;-76
2023/06/14 06:05:48;;;;;;;17.05;3.53;;;;;;;26.28;36.01;101593.19;5021973;28;19923;-76
2023/06/14 06:08:13;;;;;;;;;;;;;;;26.15;37.63;101590.97;5025942;28;20071;-76
2023/06/14 06:10:39;;;;;;;13.32;3.50;;;;;;;25.92;37.00;101585.94;5025056;28;19921;-77
2023/06/14 06:13:04;;;;;;;;;;;;;;;26.38;35.97;101590.38;5022971;28;20044;-76
2023/06/14 06:15:30;;;;;;;10.77;3.50;;;;;;;26.65;35.29;101593.72;5040847;28;20589;-76
2023/06/14 06:17:55;;;;;;;;;;;;;;;26.95;35.08;101591.63;5024687;28;20041;-76
2023/06/14 06:20:27;;;;;;;18.02;3.50;;;;;;;27.04;34.43;101589.09;5023894;28;20351;-76
2023/06/14 06:22:53;;;;;;;13.63;3.63;;;;;;;27.12;35.40;101599.75;5027403;28;20119;-76
2023/06/14 06:25:18;;;;;;;;;;;;;;;26.65;34.62;101608.63;5019624;28;21319;-76
2023/06/14 06:27:44;;;;;;;8.40;3.10;;;;;;;26.78;34.51;101598.75;5029348;28;19940;-76
2023/06/14 06:30:10;;;;;;;;;;;;;;;26.94;35.24;101603.19;5019018;28;20115;-76
2023/06/14 06:32:35;;;;;;;11.88;3.53;;;;;;;27.34;34.13;101597.41;5023932;28;20396;-76
2023/06/14 06:35:01;;;;;;;;;;;;;;;27.39;35.05;101606.69;5024565;28;20534;-76
2023/06/14 06:37:26;;;;;;;10.05;3.05;;;;;;;27.77;35.01;101605.00;5041020;28;20610;-76
2023/06/14 06:39:51;;;;;;;;;;;;;;;27.19;34.77;101606.78;5025231;28;20040;-71
2023/06/14 06:42:17;;;;;;;13.43;3.40;;;;;;;27.20;34.11;101602.00;5023291;28;19998;-71
2023/06/14 06:44:42;;;;;;;;;;;;;;;27.51;34.36;101607.16;5024212;28;20029;-71
2023/06/14 06:47:09;;;;;;;9.25;3.33;;;;;;;27.85;33.59;101616.53;5024335;28;19924;-71
2023/06/14 06:49:35;;;;;;;10.32;3.40;;;;;;;27.25;34.78;101611.25;5021998;28;20087;-71
2023/06/14 06:52:03;;;;;;;;;;;;;;;27.23;34.81;101612.66;5022725;28;20049;-70
2023/06/14 06:54:29;;;;;;;8.63;3.20;;;;;;;27.07;35.26;101619.44;5018514;28;19917;-70
2023/06/14 06:56:54;;;;;;;;;;;;;;;27.42;34.96;101627.78;5019688;28;20032;-70
2023/06/14 06:59:20;;;;;;;16.13;3.55;;;;;;;27.26;34.19;101632.63;5025813;28;20701;-71
2023/06/14 07:01:46;;;;;;;;;;;;;;;26.77;34.45;101631.66;5017965;28;20026;-71
2023/06/14 07:04:12;;;;;;;17.33;3.72;;;;;;;27.08;34.70;101627.63;5026234;28;19932;-70
2023/06/14 07:06:37;;;;;;;10.45;3.17;;;;;;;27.19;34.51;101628.44;5025286;28;20036;-70
2023/06/14 07:09:05;;;;;;;8.48;3.40;;;;;;;27.03;34.52;101629.59;5021119;28;20037;-69
2023/06/14 07:11:30;;;;;;;13.57;4.70;;;;;;;26.99;35.09;101634.94;5023352;28;20064;-70
2023/06/14 07:13:56;;;;;;;17.02;3.30;;;;;;;27.11;34.86;101637.44;5024268;28;20118;-69
2023/06/14 07:16:22;;;;;;;10.32;3.22;;;;;;;27.33;34.33;101635.97;5021739;28;20385;-71
2023/06/14 07:18:47;;;;;;;10.88;3.20;;;;;;;27.49;33.57;101646.03;5022088;28;20038;-69
2023/06/14 07:21:12;;;;;;;6.30;3.30;;;;;;;27.38;35.03;101643.56;5022598;28;20041;-69
2023/06/14 07:23:38;;;;;;;10.32;3.60;;;;;;;27.35;34.01;101652.56;5055869;28;20048;-69
2023/06/14 07:26:03;;;;;;;7.60;3.10;;;;;;;27.12;34.34;101647.56;5019820;28;20045;-69
2023/06/14 07:28:29;;;;;;;8.27;3.20;;;;;;;27.58;33.84;101654.72;5021226;28;20032;-69
2023/06/14 07:30:54;;;;;;;12.10;3.00;;;;;;;27.16;34.63;101645.88;5024226;28;20281;-69
2023/06/14 07:33:20;;;;;;;16.25;3.30;;;;;;;27.35;34.47;101652.56;5020347;28;20044;-70
2023/06/14 07:35:45;;;;;;;10.63;3.27;;;;;;;27.31;33.83;101651.47;5023379;28;20034;-70
2023/06/14 07:38:11;;;;;;;8.75;3.13;;;;;;;27.15;34.53;101656.28;5027646;28;20051;-69
2023/06/14 07:40:36;;;;;;;8.70;3.83;;;;;;;27.28;34.64;101663.28;5024296;28;20037;-69
2023/06/14 07:43:02;;;;;;;6.87;3.73;;;;;;;27.68;34.35;101658.31;5027864;28;20350;-70
2023/06/14 07:45:27;;;;;;;8.65;3.45;;;;;;;27.47;33.88;101664.34;5025563;28;20574;-70
2023/06/14 07:47:53;;;;;;;12.17;3.50;;;;;;;27.11;34.80;101666.41;5025996;28;20401;-70
2023/06/14 07:50:18;;;;;;;15.27;3.67;;;;;;;27.29;34.56;101665.84;5028670;28;20320;-69
2023/06/14 07:52:44;;;;;;;18.53;3.27;;;;;;;26.88;35.25;101655.81;5026930;28;20600;-70
2023/06/14 07:55:10;;;;;;;18.77;3.47;;;;;;;27.14;35.88;101659.38;5024209;28;20033;-70
2023/06/14 07:57:35;;;;;;;7.77;3.53;;;;;;;27.28;35.03;101666.09;5023847;28;20029;-70
2023/06/14 08:00:01;;;;;;;10.20;3.00;;;;;;;26.74;34.97;101663.13;5027018;28;20041;-69
2023/06/14 08:02:26;;;;;;;4.07;3.10;;;;;;;26.71;35.61;101671.31;5029404;28;20080;-70
2023/06/14 08:04:52;;;;;;;11.23;3.10;;;;;;;26.90;35.78;101670.41;5030308;28;20025;-70
2023/06/14 08:07:17;;;;;;;9.13;3.10;;;;;;;26.63;35.77;101669.06;5012466;28;20107;-70
2023/06/14 08:09:43;;;;;;;11.50;3.33;;;;;;;26.18;35.14;101669.06;5024050;28;20104;-70
2023/06/14 08:12:09;;;;;;;8.07;3.00;;;;;;;26.15;35.72;101669.63;5025160;28;20105;-70
2023/06/14 08:14:35;;;;;;;;;;;;;;;26.02;35.43;101673.81;5027220;28;20035;-71
2023/06/14 08:17:01;;;;;;;9.60;3.60;;;;;;;25.38;36.16;101680.06;5021744;28;19917;-70
2023/06/14 08:19:26;;;;;;;7.22;3.22;;;;;;;25.64;35.75;101670.63;5024199;28;20035;-70
2023/06/14 08:21:53;;;;;;;16.90;4.17;;;;;;;25.42;36.52;101673.66;5025712;28;20228;-70
2023/06/14 08:24:24;;;;;;;10.98;3.85;;;;;;;25.43;36.48;101669.72;5027285;28;20068;-71
2023/06/14 08:26:49;;;;;;;17.17;3.33;;;;;;;25.46;36.45;101662.72;5026088;28;20083;-72
2023/06/14 08:29:15;;;;;;;16.15;3.83;;;;;;;25.02;37.60;101667.81;5024656;28;20033;-71
2023/06/14 08:31:40;;;;;;;9.23;3.47;;;;;;;25.24;36.84;101670.47;5023993;28;20454;-70
2023/06/14 08:34:06;;;;;;;10.27;3.07;;;;;;;25.52;36.46;101673.69;5026138;28;20032;-71
2023/06/14 08:36:31;;;;;;;7.00;3.20;;;;;;;25.75;36.07;101676.00;5025308;28;20463;-70
2023/06/14 08:38:56;;;;;;;11.57;3.60;;;;;;;26.19;36.08;101680.00;5023029;28;20033;-70
2023/06/14 08:41:24;;;;;;;12.00;3.27;;;;;;;25.67;35.68;101673.72;5026795;28;20064;-71
2023/06/14 08:43:50;;;;;;;12.35;3.72;;;;;;;25.81;36.61;101674.03;5027787;28;20025;-71
2023/06/14 08:46:21;;;;;;;7.43;3.88;;;;;;;25.93;35.89;101671.84;5024019;28;20043;-70
2023/06/14 08:48:49;;;;;;;9.90;3.33;;;;;;;25.65;36.19;101670.34;5020619;28;20091;-71
2023/06/14 08:51:18;;;;;;;8.00;3.45;;;;;;;25.88;36.26;101672.63;5025206;28;20477;-70
2023/06/14 08:53:45;;;;;;;14.65;3.30;;;;;;;25.73;36.18;101674.59;5025413;28;20084;-71
2023/06/14 08:56:13;;;;;;;14.25;3.92;;;;;;;25.44;35.96;101674.22;5027143;28;20036;-71
2023/06/14 08:58:44;;;;;;;10.70;3.00;;;;;;;25.73;36.79;101674.59;5027178;28;20128;-71
2023/06/14 09:01:14;;;;;;;5.13;3.00;;;;;;;26.05;36.28;101681.72;5021495;28;20728;-71
2023/06/14 09:03:40;;;;;;;14.77;3.95;;;;;;;25.99;36.40;101679.16;5026700;28;20103;-71
2023/06/14 09:06:08;;;;;;;15.00;3.70;;;;;;;26.21;35.97;101677.78;5027049;28;20052;-71
2023/06/14 09:08:35;;;;;;;18.10;3.35;;;;;;;26.07;36.04;101670.16;5025256;28;20096;-72
2023/06/14 09:11:01;;;;;;;15.25;3.45;;;;;;;26.34;36.47;101676.34;5028725;28;20967;-71
2023/06/14 09:13:27;;;;;;;10.05;3.25;;;;;;;26.86;35.30;101683.38;5028715;28;20037;-70
2023/06/14 09:15:53;;;;;;;8.55;3.30;;;;;;;26.50;35.60;101670.47;5029424;28;20485;-69
2023/06/14 09:18:20;;;;;;;13.32;3.50;;;;;;;26.51;35.33;101680.56;5028285;28;20125;-73
2023/06/14 09:20:47;;;;;;;11.00;3.13;;;;;;;26.71;35.17;101676.94;5031247;28;20124;-72
2023/06/14 09:23:13;;;;;;;15.10;3.03;;;;;;;26.46;32.45;101688.19;5024788;28;20037;-73
2023/06/14 09:25:43;;;;;;;9.20;2.53;;;;;;;26.89;32.26;101685.59;5030212;28;20023;-72
2023/06/14 09:28:10;;;;;;;6.68;2.88;;;;;;;26.66;32.28;101688.19;5023102;28;20030;-73
2023/06/14 09:30:38;;;;;;;8.57;3.08;;;;;;;27.11;32.39;101688.09;5025059;28;21596;-72
2023/06/14 09:33:04;;;;;;;10.95;2.67;;;;;;;27.38;32.96;101680.16;5023750;28;20484;-73
2023/06/14 09:35:31;;;;;;;10.17;2.67;;;;;;;27.33;32.82;101680.16;5025567;28;20036;-73
2023/06/14 09:37:57;;;;;;;10.60;2.65;;;;;;;26.95;32.08;101683.63;5022021;28;20592;-73
2023/06/14 09:40:24;;;;;;;9.13;2.80;;;;;;;26.91;32.09;101696.59;5021216;28;20040;-73
2023/06/14 09:42:49;;;;;;;5.88;2.83;;;;;;;27.06;31.96;101690.91;5022572;28;20029;-73
2023/06/14 09:45:19;;;;;;;9.48;2.58;;;;;;;26.97;32.70;101684.19;5026126;28;20492;-73
2023/06/14 09:47:46;;;;;;;7.43;2.65;;;;;;;27.08;32.21;101695.13;5024354;28;20350;-72
2023/06/14 09:50:11;;;;;;;7.43;2.35;;;;;;;27.27;32.46;101689.75;5026136;28;20045;-73
2023/06/14 09:52:37;;;;;;;5.87;2.37;;;;;;;27.34;31.64;101702.41;5028418;28;20037;-72
2023/06/14 09:55:11;;;;;;;6.03;2.72;;;;;;;27.41;30.77;101693.63;5024923;28;20021;-72
2023/06/14 09:57:40;;;;;;;9.07;2.70;;;;;;;27.23;30.57;101697.09;5019650;28;20107;-73
2023/06/14 10:00:11;;;;;;;5.00;2.15;;;;;;;27.32;29.54;101707.47;5021831;28;20030;-73
2023/06/14 10:02:38;;;;;;;9.15;2.40;;;;;;;27.60;29.62;101708.75;5025860;28;20037;-72
2023/06/14 10:05:06;;;;;;;12.57;2.33;;;;;;;27.73;29.73;101696.84;5024623;28;20060;-73
2023/06/14 10:07:40;;;;;;;6.10;2.63;;;;;;;27.55;28.55;101704.00;5020951;28;20132;-72
2023/06/14 10:10:06;;;;;;;9.35;2.15;;;;;;;27.92;28.01;101697.91;5022653;28;20032;-74
2023/06/14 10:12:32;;;;;;;5.05;2.17;;;;;;;27.96;28.02;101697.03;5023433;28;20069;-73
2023/06/14 10:14:58;;;;;;;8.60;2.03;;;;;;;28.22;28.12;101701.34;5017193;28;20490;-73
2023/06/14 10:17:38;;;;;;;;;;;;;;;28.40;27.24;101699.84;5023162;28;20112;-73
2023/06/14 10:20:23;;;;;;;7.50;2.15;;;;;;;27.91;26.19;101694.22;5023789;28;19996;-74
2023/06/14 10:22:58;;;;;;;5.82;2.20;;;;;;;28.16;26.74;101687.59;5025234;28;20088;-73
2023/06/14 10:25:30;;;;;;;10.35;2.10;;;;;;;28.58;27.04;101693.47;5022015;28;20523;-72
2023/06/14 10:28:24;;;;;;;3.78;1.90;;;;;;;28.51;26.76;101698.59;5057796;28;20033;-74
2023/06/14 10:31:06;;;;;;;6.15;2.13;;;;;;;28.50;26.32;101694.13;5023194;28;20040;-73
2023/06/14 10:33:33;;;;;;;4.20;1.92;;;;;;;28.61;25.48;101701.34;5025132;28;20112;-73
2023/06/14 10:36:08;;;;;;;2.97;1.70;;;;;;;28.76;25.88;101701.22;5021531;28;20061;-72
2023/06/14 10:38:35;;;;;;;3.65;1.75;;;;;;;28.47;26.38;101722.88;5018685;28;20032;-71
2023/06/14 10:41:01;;;;;;;9.73;1.98;;;;;;;28.74;26.22;101703.47;5025876;28;20041;-72
2023/06/14 10:43:26;;;;;;;;;;;;;;;28.56;27.13;101698.56;5025158;28;20108;-73
2023/06/14 10:46:14;;;;;;;5.85;2.67;;;;;;;28.59;26.52;101709.28;5019902;28;20012;-72
2023/06/14 10:48:41;;;;;;;7.10;1.80;;;;;;;28.74;26.76;101704.31;5023077;28;20464;-73
2023/06/14 10:51:21;;;;;;;7.45;1.60;;;;;;;28.83;26.43;101699.72;5057008;28;20021;-73
2023/06/14 10:53:48;;;;;;;3.30;1.50;;;;;;;28.45;26.26;101705.44;5023620;28;20029;-73
2023/06/14 10:56:33;;;;;;;5.97;1.70;;;;;;;28.68;26.49;101702.69;5038954;28;20030;-72
2023/06/14 10:58:58;;;;;;;7.50;1.80;;;;;;;28.85;25.33;101705.91;5021999;28;20026;-72
2023/06/14 11:01:40;;;;;;;2.03;1.45;;;;;;;29.22;25.53;101711.72;5018318;28;20366;-73
2023/06/14 11:04:10;;;;;;;10.45;1.88;;;;;;;29.19;25.58;101703.03;5021356;28;20038;-73
2023/06/14 11:06:49;;;;;;;8.48;1.55;;;;;;;29.44;25.00;101697.91;5024888;28;20128;-73
2023/06/14 11:09:41;;;;;;;6.65;1.83;;;;;;;29.05;25.12;101700.06;5021118;28;20583;-73
2023/06/14 11:12:11;;;;;;;10.23;1.60;;;;;;;29.08;25.50;101696.63;5035257;28;20061;-73
2023/06/14 11:14:38;;;;;;;2.05;1.40;;;;;;;29.38;24.99;101701.09;5025278;28;20030;-74
2023/06/14 11:17:04;;;;;;;4.60;1.30;;;;;;;29.22;24.83;101693.94;5021759;28;20520;-72
2023/06/14 11:19:30;;;;;;;7.10;1.30;;;;;;;29.17;25.78;101696.81;5029429;28;20017;-72
2023/06/14 11:21:55;;;;;;;4.70;1.55;;;;;;;29.44;25.59;101705.56;5028641;28;20046;-73
2023/06/14 11:24:21;;;;;;;2.80;1.60;;;;;;;29.15;25.05;101704.75;5026994;28;20036;-72
2023/06/14 11:26:48;;;;;;;6.38;1.63;;;;;;;29.20;25.17;101699.06;5026618;28;20030;-73